sensor_id;sensor_type;location;lat;lon;timestamp;P1;durP1;ratioP1;P2;durP2;ratioP2
5539;SDS011;2792;52.452;9.752;2024-02-15T00:01:17;27.60;;;17.07;;
5539;SDS011;2792;52.452;9.752;2024-02-15T00:03:44;28.70;;;15.80;;
5539;SDS011;2792;52.452;9.752;2024-02-15T00:06:10;26.17;;;16.03;;
5539;SDS011;2792;52.452;9.752;2024-02-15T00:08:38;27.67;;;16.60;;
5539;SDS011;2792;52.452;9.752;2024-02-15T00:11:05;28.33;;;17.20;;
5539;SDS011;2792;52.452;9.752;2024-02-15T00:13:33;27.23;;;16.87;;
5539;SDS011;2792;52.452;9.752;2024-02-15T00:16:00;27.80;;;16.57;;
5539;SDS011;2792;52.452;9.752;2024-02-15T00:18:27;27.90;;;16.77;;
5539;SDS011;2792;52.452;9.752;2024-02-15T00:20:53;30.73;;;18.03;;
5539;SDS011;2792;52.452;9.752;2024-02-15T00:23:20;32.70;;;18.00;;
5539;SDS011;2792;52.452;9.752;2024-02-15T00:25:48;28.10;;;17.20;;
5539;SDS011;2792;52.452;9.752;2024-02-15T00:28:15;26.10;;;17.23;;
5539;SDS011;2792;52.452;9.752;2024-02-15T00:30:41;33.53;;;18.50;;
5539;SDS011;2792;52.452;9.752;2024-02-15T00:33:08;27.80;;;16.60;;
5539;SDS011;2792;52.452;9.752;2024-02-15T00:35:35;30.07;;;17.33;;
5539;SDS011;2792;52.452;9.752;2024-02-15T00:38:02;28.50;;;17.30;;
5539;SDS011;2792;52.452;9.752;2024-02-15T00:40:29;28.53;;;16.60;;
5539;SDS011;2792;52.452;9.752;2024-02-15T00:42:57;27.90;;;16.97;;
5539;SDS011;2792;52.452;9.752;2024-02-15T00:45:23;24.37;;;15.47;;
5539;SDS011;2792;52.452;9.752;2024-02-15T00:47:50;25.13;;;15.43;;
5539;SDS011;2792;52.452;9.752;2024-02-15T00:50:16;25.90;;;16.10;;
5539;SDS011;2792;52.452;9.752;2024-02-15T00:52:43;29.00;;;16.63;;
5539;SDS011;2792;52.452;9.752;2024-02-15T00:55:10;22.60;;;14.73;;
5539;SDS011;2792;52.452;9.752;2024-02-15T00:57:36;24.37;;;15.83;;
5539;SDS011;2792;52.452;9.752;2024-02-15T01:00:05;19.80;;;13.20;;
5539;SDS011;2792;52.452;9.752;2024-02-15T01:02:34;19.30;;;12.90;;
5539;SDS011;2792;52.452;9.752;2024-02-15T01:05:01;23.33;;;14.80;;
5539;SDS011;2792;52.452;9.752;2024-02-15T01:07:28;22.90;;;13.17;;
5539;SDS011;2792;52.452;9.752;2024-02-15T01:09:55;24.33;;;14.90;;
5539;SDS011;2792;52.452;9.752;2024-02-15T01:12:21;23.60;;;14.50;;
5539;SDS011;2792;52.452;9.752;2024-02-15T01:14:48;25.70;;;14.47;;
5539;SDS011;2792;52.452;9.752;2024-02-15T01:17:15;19.70;;;12.90;;
5539;SDS011;2792;52.452;9.752;2024-02-15T01:19:42;21.47;;;13.40;;
5539;SDS011;2792;52.452;9.752;2024-02-15T01:22:09;22.63;;;14.00;;
5539;SDS011;2792;52.452;9.752;2024-02-15T01:24:35;24.20;;;13.57;;
5539;SDS011;2792;52.452;9.752;2024-02-15T01:27:02;21.23;;;12.63;;
5539;SDS011;2792;52.452;9.752;2024-02-15T01:29:28;21.73;;;13.47;;
5539;SDS011;2792;52.452;9.752;2024-02-15T01:31:55;19.23;;;12.73;;
5539;SDS011;2792;52.452;9.752;2024-02-15T01:34:23;19.20;;;10.83;;
5539;SDS011;2792;52.452;9.752;2024-02-15T01:36:49;23.50;;;14.40;;
5539;SDS011;2792;52.452;9.752;2024-02-15T01:39:16;22.90;;;13.60;;
5539;SDS011;2792;52.452;9.752;2024-02-15T01:41:46;20.50;;;13.43;;
5539;SDS011;2792;52.452;9.752;2024-02-15T01:44:15;18.60;;;12.60;;
5539;SDS011;2792;52.452;9.752;2024-02-15T01:46:43;21.87;;;13.63;;
5539;SDS011;2792;52.452;9.752;2024-02-15T01:49:11;21.37;;;13.73;;
5539;SDS011;2792;52.452;9.752;2024-02-15T01:51:39;20.07;;;12.77;;
5539;SDS011;2792;52.452;9.752;2024-02-15T01:54:08;21.00;;;12.57;;
5539;SDS011;2792;52.452;9.752;2024-02-15T01:56:35;24.80;;;12.93;;
5539;SDS011;2792;52.452;9.752;2024-02-15T01:59:02;21.10;;;14.60;;
5539;SDS011;2792;52.452;9.752;2024-02-15T02:01:29;20.40;;;12.30;;
5539;SDS011;2792;52.452;9.752;2024-02-15T02:03:57;18.87;;;13.03;;
5539;SDS011;2792;52.452;9.752;2024-02-15T02:06:24;21.50;;;12.80;;
5539;SDS011;2792;52.452;9.752;2024-02-15T02:08:52;19.87;;;12.53;;
5539;SDS011;2792;52.452;9.752;2024-02-15T02:11:20;19.43;;;12.80;;
5539;SDS011;2792;52.452;9.752;2024-02-15T02:13:47;18.07;;;11.87;;
5539;SDS011;2792;52.452;9.752;2024-02-15T02:16:26;17.87;;;12.20;;
5539;SDS011;2792;52.452;9.752;2024-02-15T02:18:54;20.33;;;10.93;;
5539;SDS011;2792;52.452;9.752;2024-02-15T02:21:21;22.13;;;12.70;;
5539;SDS011;2792;52.452;9.752;2024-02-15T02:23:51;17.97;;;11.87;;
5539;SDS011;2792;52.452;9.752;2024-02-15T02:26:23;16.00;;;10.67;;
5539;SDS011;2792;52.452;9.752;2024-02-15T02:28:51;19.20;;;12.63;;
5539;SDS011;2792;52.452;9.752;2024-02-15T02:31:18;16.37;;;10.23;;
5539;SDS011;2792;52.452;9.752;2024-02-15T02:33:47;14.40;;;10.17;;
5539;SDS011;2792;52.452;9.752;2024-02-15T02:36:18;16.20;;;9.97;;
5539;SDS011;2792;52.452;9.752;2024-02-15T02:38:44;14.23;;;9.67;;
5539;SDS011;2792;52.452;9.752;2024-02-15T02:41:11;15.60;;;9.83;;
5539;SDS011;2792;52.452;9.752;2024-02-15T02:43:40;16.93;;;9.60;;
5539;SDS011;2792;52.452;9.752;2024-02-15T02:46:06;13.10;;;9.10;;
5539;SDS011;2792;52.452;9.752;2024-02-15T02:48:33;15.33;;;10.47;;
5539;SDS011;2792;52.452;9.752;2024-02-15T02:50:59;13.13;;;9.20;;
5539;SDS011;2792;52.452;9.752;2024-02-15T02:53:26;12.63;;;8.80;;
5539;SDS011;2792;52.452;9.752;2024-02-15T02:55:52;13.47;;;8.87;;
5539;SDS011;2792;52.452;9.752;2024-02-15T02:58:19;13.70;;;9.23;;
5539;SDS011;2792;52.452;9.752;2024-02-15T03:00:47;13.93;;;7.90;;
5539;SDS011;2792;52.452;9.752;2024-02-15T03:03:13;12.27;;;9.00;;
5539;SDS011;2792;52.452;9.752;2024-02-15T03:05:40;10.70;;;7.20;;
5539;SDS011;2792;52.452;9.752;2024-02-15T03:08:07;10.57;;;8.27;;
5539;SDS011;2792;52.452;9.752;2024-02-15T03:10:34;12.30;;;6.90;;
5539;SDS011;2792;52.452;9.752;2024-02-15T03:13:01;10.10;;;7.33;;
5539;SDS011;2792;52.452;9.752;2024-02-15T03:15:30;10.87;;;7.27;;
5539;SDS011;2792;52.452;9.752;2024-02-15T03:17:59;9.00;;;6.50;;
5539;SDS011;2792;52.452;9.752;2024-02-15T03:20:28;11.43;;;7.17;;
5539;SDS011;2792;52.452;9.752;2024-02-15T03:22:54;11.80;;;7.97;;
5539;SDS011;2792;52.452;9.752;2024-02-15T03:25:22;11.80;;;7.90;;
5539;SDS011;2792;52.452;9.752;2024-02-15T03:27:49;9.80;;;6.87;;
5539;SDS011;2792;52.452;9.752;2024-02-15T03:30:17;12.13;;;6.70;;
5539;SDS011;2792;52.452;9.752;2024-02-15T03:32:44;15.70;;;8.60;;
5539;SDS011;2792;52.452;9.752;2024-02-15T03:35:12;10.47;;;8.00;;
5539;SDS011;2792;52.452;9.752;2024-02-15T03:37:39;9.70;;;7.30;;
5539;SDS011;2792;52.452;9.752;2024-02-15T03:40:06;11.63;;;8.13;;
5539;SDS011;2792;52.452;9.752;2024-02-15T03:42:34;10.53;;;7.70;;
5539;SDS011;2792;52.452;9.752;2024-02-15T03:45:01;13.17;;;8.33;;
5539;SDS011;2792;52.452;9.752;2024-02-15T03:47:28;13.63;;;8.77;;
5539;SDS011;2792;52.452;9.752;2024-02-15T03:49:55;12.50;;;8.40;;
5539;SDS011;2792;52.452;9.752;2024-02-15T03:52:23;14.03;;;9.23;;
5539;SDS011;2792;52.452;9.752;2024-02-15T03:54:49;11.80;;;8.63;;
5539;SDS011;2792;52.452;9.752;2024-02-15T03:57:17;14.13;;;8.50;;
5539;SDS011;2792;52.452;9.752;2024-02-15T03:59:46;13.63;;;8.50;;
5539;SDS011;2792;52.452;9.752;2024-02-15T04:02:15;13.33;;;9.07;;
5539;SDS011;2792;52.452;9.752;2024-02-15T04:04:42;12.60;;;8.67;;
5539;SDS011;2792;52.452;9.752;2024-02-15T04:07:11;13.23;;;9.13;;
5539;SDS011;2792;52.452;9.752;2024-02-15T04:09:39;13.50;;;9.20;;
5539;SDS011;2792;52.452;9.752;2024-02-15T04:12:06;15.10;;;9.67;;
5539;SDS011;2792;52.452;9.752;2024-02-15T04:14:33;14.77;;;10.03;;
5539;SDS011;2792;52.452;9.752;2024-02-15T04:17:00;17.00;;;10.73;;
5539;SDS011;2792;52.452;9.752;2024-02-15T04:19:27;17.30;;;9.00;;
5539;SDS011;2792;52.452;9.752;2024-02-15T04:21:53;16.77;;;8.30;;
5539;SDS011;2792;52.452;9.752;2024-02-15T04:24:20;12.90;;;8.70;;
5539;SDS011;2792;52.452;9.752;2024-02-15T04:26:48;11.50;;;8.03;;
5539;SDS011;2792;52.452;9.752;2024-02-15T04:29:16;14.37;;;9.10;;
5539;SDS011;2792;52.452;9.752;2024-02-15T04:31:45;13.70;;;9.97;;
5539;SDS011;2792;52.452;9.752;2024-02-15T04:34:14;15.93;;;9.17;;
5539;SDS011;2792;52.452;9.752;2024-02-15T04:36:40;15.90;;;8.90;;
5539;SDS011;2792;52.452;9.752;2024-02-15T04:39:07;13.90;;;9.60;;
5539;SDS011;2792;52.452;9.752;2024-02-15T04:41:36;11.30;;;8.10;;
5539;SDS011;2792;52.452;9.752;2024-02-15T04:44:05;12.40;;;8.80;;
5539;SDS011;2792;52.452;9.752;2024-02-15T04:46:33;13.50;;;9.37;;
5539;SDS011;2792;52.452;9.752;2024-02-15T04:49:00;12.77;;;8.97;;
5539;SDS011;2792;52.452;9.752;2024-02-15T04:51:28;13.63;;;9.20;;
5539;SDS011;2792;52.452;9.752;2024-02-15T04:53:54;17.93;;;8.80;;
5539;SDS011;2792;52.452;9.752;2024-02-15T04:56:22;12.90;;;8.63;;
5539;SDS011;2792;52.452;9.752;2024-02-15T04:58:49;13.67;;;8.33;;
5539;SDS011;2792;52.452;9.752;2024-02-15T05:01:17;12.50;;;8.57;;
5539;SDS011;2792;52.452;9.752;2024-02-15T05:03:44;12.03;;;7.87;;
5539;SDS011;2792;52.452;9.752;2024-02-15T05:06:10;11.33;;;7.53;;
5539;SDS011;2792;52.452;9.752;2024-02-15T05:08:38;11.80;;;8.23;;
5539;SDS011;2792;52.452;9.752;2024-02-15T05:11:07;11.23;;;8.30;;
5539;SDS011;2792;52.452;9.752;2024-02-15T05:13:38;10.70;;;7.17;;
5539;SDS011;2792;52.452;9.752;2024-02-15T05:16:05;12.47;;;8.47;;
5539;SDS011;2792;52.452;9.752;2024-02-15T05:18:33;10.17;;;7.43;;
5539;SDS011;2792;52.452;9.752;2024-02-15T05:21:00;14.93;;;8.63;;
5539;SDS011;2792;52.452;9.752;2024-02-15T05:23:28;11.80;;;8.07;;
5539;SDS011;2792;52.452;9.752;2024-02-15T05:25:55;10.10;;;6.70;;
5539;SDS011;2792;52.452;9.752;2024-02-15T05:28:23;12.30;;;8.30;;
5539;SDS011;2792;52.452;9.752;2024-02-15T05:31:08;9.47;;;7.50;;
5539;SDS011;2792;52.452;9.752;2024-02-15T05:33:37;11.10;;;8.00;;
5539;SDS011;2792;52.452;9.752;2024-02-15T05:36:05;9.67;;;7.27;;
5539;SDS011;2792;52.452;9.752;2024-02-15T05:38:33;9.33;;;7.47;;
5539;SDS011;2792;52.452;9.752;2024-02-15T05:41:00;13.00;;;8.60;;
5539;SDS011;2792;52.452;9.752;2024-02-15T05:43:28;10.93;;;6.90;;
5539;SDS011;2792;52.452;9.752;2024-02-15T05:45:55;11.27;;;8.07;;
5539;SDS011;2792;52.452;9.752;2024-02-15T05:48:23;11.63;;;8.07;;
5539;SDS011;2792;52.452;9.752;2024-02-15T05:50:50;11.03;;;7.80;;
5539;SDS011;2792;52.452;9.752;2024-02-15T05:53:19;10.60;;;7.47;;
5539;SDS011;2792;52.452;9.752;2024-02-15T05:55:46;9.77;;;7.70;;
5539;SDS011;2792;52.452;9.752;2024-02-15T05:58:14;14.97;;;7.83;;
5539;SDS011;2792;52.452;9.752;2024-02-15T06:00:41;13.20;;;8.57;;
5539;SDS011;2792;52.452;9.752;2024-02-15T06:03:09;11.20;;;8.47;;
5539;SDS011;2792;52.452;9.752;2024-02-15T06:05:37;12.40;;;8.03;;
5539;SDS011;2792;52.452;9.752;2024-02-15T06:08:05;12.93;;;9.00;;
5539;SDS011;2792;52.452;9.752;2024-02-15T06:10:32;12.13;;;8.70;;
5539;SDS011;2792;52.452;9.752;2024-02-15T06:12:58;13.20;;;8.97;;
5539;SDS011;2792;52.452;9.752;2024-02-15T06:15:25;14.50;;;10.07;;
5539;SDS011;2792;52.452;9.752;2024-02-15T06:17:52;13.80;;;9.60;;
5539;SDS011;2792;52.452;9.752;2024-02-15T06:20:18;14.63;;;9.40;;
5539;SDS011;2792;52.452;9.752;2024-02-15T06:22:46;14.53;;;9.50;;
5539;SDS011;2792;52.452;9.752;2024-02-15T06:25:14;17.77;;;10.80;;
5539;SDS011;2792;52.452;9.752;2024-02-15T06:27:45;18.30;;;12.03;;
5539;SDS011;2792;52.452;9.752;2024-02-15T06:30:12;17.63;;;10.40;;
5539;SDS011;2792;52.452;9.752;2024-02-15T06:32:56;21.40;;;11.80;;
5539;SDS011;2792;52.452;9.752;2024-02-15T06:35:41;20.33;;;10.90;;
5539;SDS011;2792;52.452;9.752;2024-02-15T06:38:25;16.50;;;11.40;;
5539;SDS011;2792;52.452;9.752;2024-02-15T06:41:13;18.50;;;12.53;;
5539;SDS011;2792;52.452;9.752;2024-02-15T06:43:39;21.57;;;12.60;;
5539;SDS011;2792;52.452;9.752;2024-02-15T06:46:06;20.60;;;12.90;;
5539;SDS011;2792;52.452;9.752;2024-02-15T06:48:33;23.43;;;13.27;;
5539;SDS011;2792;52.452;9.752;2024-02-15T06:50:59;21.50;;;12.30;;
5539;SDS011;2792;52.452;9.752;2024-02-15T06:53:26;22.60;;;12.43;;
5539;SDS011;2792;52.452;9.752;2024-02-15T06:55:52;21.10;;;13.00;;
5539;SDS011;2792;52.452;9.752;2024-02-15T06:58:20;23.77;;;13.67;;
5539;SDS011;2792;52.452;9.752;2024-02-15T07:00:47;23.10;;;12.97;;
5539;SDS011;2792;52.452;9.752;2024-02-15T07:03:15;21.20;;;13.60;;
5539;SDS011;2792;52.452;9.752;2024-02-15T07:05:43;26.60;;;14.50;;
5539;SDS011;2792;52.452;9.752;2024-02-15T07:08:10;24.47;;;15.23;;
5539;SDS011;2792;52.452;9.752;2024-02-15T07:10:37;30.90;;;16.00;;
5539;SDS011;2792;52.452;9.752;2024-02-15T07:13:03;28.43;;;15.33;;
5539;SDS011;2792;52.452;9.752;2024-02-15T07:15:32;31.43;;;15.63;;
5539;SDS011;2792;52.452;9.752;2024-02-15T07:18:03;24.13;;;14.10;;
5539;SDS011;2792;52.452;9.752;2024-02-15T07:20:31;28.83;;;16.10;;
5539;SDS011;2792;52.452;9.752;2024-02-15T07:22:57;26.80;;;16.70;;
5539;SDS011;2792;52.452;9.752;2024-02-15T07:25:24;28.43;;;16.27;;
5539;SDS011;2792;52.452;9.752;2024-02-15T07:27:51;32.87;;;16.63;;
5539;SDS011;2792;52.452;9.752;2024-02-15T07:30:17;28.20;;;16.63;;
5539;SDS011;2792;52.452;9.752;2024-02-15T07:32:46;24.57;;;15.20;;
5539;SDS011;2792;52.452;9.752;2024-02-15T07:35:12;26.90;;;15.80;;
5539;SDS011;2792;52.452;9.752;2024-02-15T07:37:50;25.57;;;16.30;;
5539;SDS011;2792;52.452;9.752;2024-02-15T07:40:17;26.47;;;15.17;;
5539;SDS011;2792;52.452;9.752;2024-02-15T07:42:44;25.53;;;14.47;;
5539;SDS011;2792;52.452;9.752;2024-02-15T07:45:11;25.83;;;13.33;;
5539;SDS011;2792;52.452;9.752;2024-02-15T07:47:38;20.33;;;13.67;;
5539;SDS011;2792;52.452;9.752;2024-02-15T07:50:06;24.97;;;14.80;;
5539;SDS011;2792;52.452;9.752;2024-02-15T07:52:34;28.20;;;14.00;;
5539;SDS011;2792;52.452;9.752;2024-02-15T07:55:01;25.43;;;16.03;;
5539;SDS011;2792;52.452;9.752;2024-02-15T07:57:33;23.03;;;13.43;;
5539;SDS011;2792;52.452;9.752;2024-02-15T08:00:00;26.53;;;13.77;;
5539;SDS011;2792;52.452;9.752;2024-02-15T08:02:26;25.33;;;15.17;;
5539;SDS011;2792;52.452;9.752;2024-02-15T08:04:53;22.07;;;12.40;;
5539;SDS011;2792;52.452;9.752;2024-02-15T08:07:21;23.10;;;12.13;;
5539;SDS011;2792;52.452;9.752;2024-02-15T08:09:48;28.50;;;12.73;;
5539;SDS011;2792;52.452;9.752;2024-02-15T08:12:15;24.67;;;13.13;;
5539;SDS011;2792;52.452;9.752;2024-02-15T08:14:44;20.13;;;12.10;;
5539;SDS011;2792;52.452;9.752;2024-02-15T08:17:10;17.63;;;10.97;;
5539;SDS011;2792;52.452;9.752;2024-02-15T08:19:39;20.50;;;11.70;;
5539;SDS011;2792;52.452;9.752;2024-02-15T08:22:06;19.70;;;10.97;;
5539;SDS011;2792;52.452;9.752;2024-02-15T08:24:36;17.73;;;11.90;;
5539;SDS011;2792;52.452;9.752;2024-02-15T08:27:03;14.20;;;10.60;;
5539;SDS011;2792;52.452;9.752;2024-02-15T08:29:29;16.90;;;10.57;;
5539;SDS011;2792;52.452;9.752;2024-02-15T08:31:56;24.03;;;10.60;;
5539;SDS011;2792;52.452;9.752;2024-02-15T08:34:23;15.13;;;10.70;;
5539;SDS011;2792;52.452;9.752;2024-02-15T08:36:50;14.70;;;9.63;;
5539;SDS011;2792;52.452;9.752;2024-02-15T08:39:16;18.67;;;9.87;;
5539;SDS011;2792;52.452;9.752;2024-02-15T08:41:44;16.83;;;10.17;;
5539;SDS011;2792;52.452;9.752;2024-02-15T08:44:11;14.73;;;9.93;;
5539;SDS011;2792;52.452;9.752;2024-02-15T08:46:40;17.03;;;9.20;;
5539;SDS011;2792;52.452;9.752;2024-02-15T08:49:07;16.73;;;8.10;;
5539;SDS011;2792;52.452;9.752;2024-02-15T08:51:33;12.37;;;8.20;;
5539;SDS011;2792;52.452;9.752;2024-02-15T08:54:00;10.83;;;7.10;;
5539;SDS011;2792;52.452;9.752;2024-02-15T08:56:27;10.10;;;6.60;;
5539;SDS011;2792;52.452;9.752;2024-02-15T08:58:55;13.40;;;7.53;;
5539;SDS011;2792;52.452;9.752;2024-02-15T09:01:22;8.83;;;5.37;;
5539;SDS011;2792;52.452;9.752;2024-02-15T09:03:49;9.23;;;5.93;;
5539;SDS011;2792;52.452;9.752;2024-02-15T09:06:15;8.80;;;6.23;;
5539;SDS011;2792;52.452;9.752;2024-02-15T09:08:42;8.60;;;5.50;;
5539;SDS011;2792;52.452;9.752;2024-02-15T09:11:08;10.47;;;5.47;;
5539;SDS011;2792;52.452;9.752;2024-02-15T09:13:37;14.97;;;4.43;;
5539;SDS011;2792;52.452;9.752;2024-02-15T09:16:05;6.00;;;5.10;;
5539;SDS011;2792;52.452;9.752;2024-02-15T09:18:32;4.43;;;4.00;;
5539;SDS011;2792;52.452;9.752;2024-02-15T09:20:59;8.27;;;4.10;;
5539;SDS011;2792;52.452;9.752;2024-02-15T09:23:25;4.70;;;4.03;;
5539;SDS011;2792;52.452;9.752;2024-02-15T09:25:52;15.10;;;4.40;;
5539;SDS011;2792;52.452;9.752;2024-02-15T09:28:18;7.10;;;4.00;;
5539;SDS011;2792;52.452;9.752;2024-02-15T09:30:47;9.10;;;4.73;;
5539;SDS011;2792;52.452;9.752;2024-02-15T09:33:14;7.00;;;3.90;;
5539;SDS011;2792;52.452;9.752;2024-02-15T09:35:42;9.97;;;4.40;;
5539;SDS011;2792;52.452;9.752;2024-02-15T09:38:08;7.13;;;3.70;;
5539;SDS011;2792;52.452;9.752;2024-02-15T09:40:35;4.33;;;3.20;;
5539;SDS011;2792;52.452;9.752;2024-02-15T09:43:01;6.23;;;3.57;;
5539;SDS011;2792;52.452;9.752;2024-02-15T09:45:28;3.80;;;2.90;;
5539;SDS011;2792;52.452;9.752;2024-02-15T09:47:55;7.00;;;3.63;;
5539;SDS011;2792;52.452;9.752;2024-02-15T09:50:27;3.00;;;2.70;;
5539;SDS011;2792;52.452;9.752;2024-02-15T09:52:58;2.93;;;2.60;;
5539;SDS011;2792;52.452;9.752;2024-02-15T09:55:27;3.80;;;2.60;;
5539;SDS011;2792;52.452;9.752;2024-02-15T09:57:54;3.53;;;2.73;;
5539;SDS011;2792;52.452;9.752;2024-02-15T10:00:21;3.27;;;2.73;;
5539;SDS011;2792;52.452;9.752;2024-02-15T10:02:49;2.33;;;2.17;;
5539;SDS011;2792;52.452;9.752;2024-02-15T10:05:17;3.73;;;2.13;;
5539;SDS011;2792;52.452;9.752;2024-02-15T10:07:45;8.17;;;2.80;;
5539;SDS011;2792;52.452;9.752;2024-02-15T10:10:15;3.80;;;2.60;;
5539;SDS011;2792;52.452;9.752;2024-02-15T10:12:44;3.20;;;2.37;;
5539;SDS011;2792;52.452;9.752;2024-02-15T10:15:14;9.80;;;3.70;;
5539;SDS011;2792;52.452;9.752;2024-02-15T10:17:53;3.50;;;2.30;;
5539;SDS011;2792;52.452;9.752;2024-02-15T10:20:20;3.13;;;2.60;;
5539;SDS011;2792;52.452;9.752;2024-02-15T10:22:48;7.93;;;2.70;;
5539;SDS011;2792;52.452;9.752;2024-02-15T10:25:15;5.30;;;2.30;;
5539;SDS011;2792;52.452;9.752;2024-02-15T10:27:41;6.73;;;2.13;;
5539;SDS011;2792;52.452;9.752;2024-02-15T10:30:15;4.00;;;2.27;;
5539;SDS011;2792;52.452;9.752;2024-02-15T10:32:42;4.40;;;2.40;;
5539;SDS011;2792;52.452;9.752;2024-02-15T10:35:09;5.10;;;2.47;;
5539;SDS011;2792;52.452;9.752;2024-02-15T10:37:40;5.63;;;2.40;;
5539;SDS011;2792;52.452;9.752;2024-02-15T10:40:09;2.80;;;2.50;;
5539;SDS011;2792;52.452;9.752;2024-02-15T10:42:38;2.80;;;2.47;;
5539;SDS011;2792;52.452;9.752;2024-02-15T10:45:07;8.60;;;2.80;;
5539;SDS011;2792;52.452;9.752;2024-02-15T10:47:36;4.30;;;2.63;;
5539;SDS011;2792;52.452;9.752;2024-02-15T10:50:04;4.13;;;2.60;;
5539;SDS011;2792;52.452;9.752;2024-02-15T10:52:31;5.13;;;2.20;;
5539;SDS011;2792;52.452;9.752;2024-02-15T10:55:03;3.10;;;2.63;;
5539;SDS011;2792;52.452;9.752;2024-02-15T10:57:36;5.70;;;2.37;;
5539;SDS011;2792;52.452;9.752;2024-02-15T11:00:04;5.13;;;2.93;;
5539;SDS011;2792;52.452;9.752;2024-02-15T11:02:37;2.77;;;2.50;;
5539;SDS011;2792;52.452;9.752;2024-02-15T11:05:06;5.37;;;3.00;;
5539;SDS011;2792;52.452;9.752;2024-02-15T11:07:35;4.57;;;3.03;;
5539;SDS011;2792;52.452;9.752;2024-02-15T11:10:02;3.60;;;3.20;;
5539;SDS011;2792;52.452;9.752;2024-02-15T11:12:33;5.60;;;3.10;;
5539;SDS011;2792;52.452;9.752;2024-02-15T11:15:01;4.60;;;2.93;;
5539;SDS011;2792;52.452;9.752;2024-02-15T11:17:45;3.43;;;2.57;;
5539;SDS011;2792;52.452;9.752;2024-02-15T11:23:26;3.30;;;3.00;;
5539;SDS011;2792;52.452;9.752;2024-02-15T11:25:53;5.80;;;3.07;;
5539;SDS011;2792;52.452;9.752;2024-02-15T11:28:35;6.03;;;4.20;;
5539;SDS011;2792;52.452;9.752;2024-02-15T11:31:03;5.93;;;3.63;;
5539;SDS011;2792;52.452;9.752;2024-02-15T11:33:34;5.00;;;3.27;;
5539;SDS011;2792;52.452;9.752;2024-02-15T11:36:02;5.30;;;2.77;;
5539;SDS011;2792;52.452;9.752;2024-02-15T11:38:28;3.53;;;3.00;;
5539;SDS011;2792;52.452;9.752;2024-02-15T11:41:04;9.00;;;3.67;;
5539;SDS011;2792;52.452;9.752;2024-02-15T11:46:30;3.40;;;2.70;;
5539;SDS011;2792;52.452;9.752;2024-02-15T11:48:59;4.93;;;3.23;;
5539;SDS011;2792;52.452;9.752;2024-02-15T11:51:29;7.73;;;3.00;;
5539;SDS011;2792;52.452;9.752;2024-02-15T11:54:02;4.30;;;3.17;;
5539;SDS011;2792;52.452;9.752;2024-02-15T11:56:33;2.67;;;2.47;;
5539;SDS011;2792;52.452;9.752;2024-02-15T11:59:18;3.30;;;2.83;;
5539;SDS011;2792;52.452;9.752;2024-02-15T12:01:54;3.70;;;2.70;;
5539;SDS011;2792;52.452;9.752;2024-02-15T12:04:38;4.23;;;2.73;;
5539;SDS011;2792;52.452;9.752;2024-02-15T12:07:22;6.50;;;3.60;;
5539;SDS011;2792;52.452;9.752;2024-02-15T12:10:06;3.83;;;2.90;;
5539;SDS011;2792;52.452;9.752;2024-02-15T12:12:51;4.40;;;2.97;;
5539;SDS011;2792;52.452;9.752;2024-02-15T12:15:36;6.23;;;3.00;;
5539;SDS011;2792;52.452;9.752;2024-02-15T12:18:26;6.20;;;2.73;;
5539;SDS011;2792;52.452;9.752;2024-02-15T12:21:13;4.20;;;2.50;;
5539;SDS011;2792;52.452;9.752;2024-02-15T12:23:41;3.07;;;2.40;;
5539;SDS011;2792;52.452;9.752;2024-02-15T12:26:08;3.63;;;2.37;;
5539;SDS011;2792;52.452;9.752;2024-02-15T12:28:34;3.00;;;2.17;;
5539;SDS011;2792;52.452;9.752;2024-02-15T12:31:02;7.30;;;3.00;;
5539;SDS011;2792;52.452;9.752;2024-02-15T12:33:31;6.00;;;2.40;;
5539;SDS011;2792;52.452;9.752;2024-02-15T12:36:03;4.07;;;2.00;;
5539;SDS011;2792;52.452;9.752;2024-02-15T12:38:30;4.70;;;2.10;;
5539;SDS011;2792;52.452;9.752;2024-02-15T12:40:56;2.67;;;2.20;;
5539;SDS011;2792;52.452;9.752;2024-02-15T12:43:22;4.17;;;2.47;;
5539;SDS011;2792;52.452;9.752;2024-02-15T12:45:49;3.27;;;2.70;;
5539;SDS011;2792;52.452;9.752;2024-02-15T12:48:18;7.13;;;2.33;;
5539;SDS011;2792;52.452;9.752;2024-02-15T12:50:44;6.30;;;2.50;;
5539;SDS011;2792;52.452;9.752;2024-02-15T12:53:11;4.47;;;1.90;;
5539;SDS011;2792;52.452;9.752;2024-02-15T12:55:39;2.37;;;2.17;;
5539;SDS011;2792;52.452;9.752;2024-02-15T12:58:06;4.60;;;2.03;;
5539;SDS011;2792;52.452;9.752;2024-02-15T13:00:34;3.20;;;2.27;;
5539;SDS011;2792;52.452;9.752;2024-02-15T13:03:04;2.60;;;2.30;;
5539;SDS011;2792;52.452;9.752;2024-02-15T13:05:35;6.87;;;2.80;;
5539;SDS011;2792;52.452;9.752;2024-02-15T13:08:02;3.20;;;2.20;;
5539;SDS011;2792;52.452;9.752;2024-02-15T13:10:31;3.83;;;2.60;;
5539;SDS011;2792;52.452;9.752;2024-02-15T13:12:57;4.23;;;2.50;;
5539;SDS011;2792;52.452;9.752;2024-02-15T13:15:24;4.10;;;3.20;;
5539;SDS011;2792;52.452;9.752;2024-02-15T13:17:57;4.63;;;2.83;;
5539;SDS011;2792;52.452;9.752;2024-02-15T13:20:24;6.53;;;3.00;;
5539;SDS011;2792;52.452;9.752;2024-02-15T13:22:58;5.83;;;2.97;;
5539;SDS011;2792;52.452;9.752;2024-02-15T13:25:27;6.30;;;3.00;;
5539;SDS011;2792;52.452;9.752;2024-02-15T13:27:54;4.20;;;3.00;;
5539;SDS011;2792;52.452;9.752;2024-02-15T13:30:21;4.10;;;2.97;;
5539;SDS011;2792;52.452;9.752;2024-02-15T13:32:52;3.57;;;3.10;;
5539;SDS011;2792;52.452;9.752;2024-02-15T13:35:19;3.40;;;3.07;;
5539;SDS011;2792;52.452;9.752;2024-02-15T13:37:48;3.83;;;3.23;;
5539;SDS011;2792;52.452;9.752;2024-02-15T13:40:18;4.30;;;2.87;;
5539;SDS011;2792;52.452;9.752;2024-02-15T13:42:48;5.83;;;2.83;;
5539;SDS011;2792;52.452;9.752;2024-02-15T13:45:17;2.47;;;2.27;;
5539;SDS011;2792;52.452;9.752;2024-02-15T13:47:45;2.97;;;2.23;;
5539;SDS011;2792;52.452;9.752;2024-02-15T13:50:13;5.03;;;2.50;;
5539;SDS011;2792;52.452;9.752;2024-02-15T13:52:40;4.07;;;2.17;;
5539;SDS011;2792;52.452;9.752;2024-02-15T13:55:08;2.67;;;2.47;;
5539;SDS011;2792;52.452;9.752;2024-02-15T13:57:37;2.43;;;2.00;;
5539;SDS011;2792;52.452;9.752;2024-02-15T14:00:05;4.73;;;2.67;;
5539;SDS011;2792;52.452;9.752;2024-02-15T14:02:38;4.57;;;3.00;;
5539;SDS011;2792;52.452;9.752;2024-02-15T14:05:04;5.67;;;2.70;;
5539;SDS011;2792;52.452;9.752;2024-02-15T14:07:33;2.30;;;1.83;;
5539;SDS011;2792;52.452;9.752;2024-02-15T14:10:00;5.83;;;1.80;;
5539;SDS011;2792;52.452;9.752;2024-02-15T14:12:27;2.70;;;2.00;;
5539;SDS011;2792;52.452;9.752;2024-02-15T14:14:55;1.90;;;1.70;;
5539;SDS011;2792;52.452;9.752;2024-02-15T14:17:22;2.33;;;2.13;;
5539;SDS011;2792;52.452;9.752;2024-02-15T14:19:48;2.67;;;2.00;;
5539;SDS011;2792;52.452;9.752;2024-02-15T14:22:15;3.77;;;2.20;;
5539;SDS011;2792;52.452;9.752;2024-02-15T14:24:41;2.83;;;1.50;;
5539;SDS011;2792;52.452;9.752;2024-02-15T14:27:08;2.00;;;1.80;;
5539;SDS011;2792;52.452;9.752;2024-02-15T14:29:35;5.50;;;1.70;;
5539;SDS011;2792;52.452;9.752;2024-02-15T14:32:04;2.33;;;1.50;;
5539;SDS011;2792;52.452;9.752;2024-02-15T14:34:48;2.33;;;2.00;;
5539;SDS011;2792;52.452;9.752;2024-02-15T14:37:16;2.50;;;2.30;;
5539;SDS011;2792;52.452;9.752;2024-02-15T14:39:44;2.33;;;1.80;;
5539;SDS011;2792;52.452;9.752;2024-02-15T14:42:11;3.33;;;2.40;;
5539;SDS011;2792;52.452;9.752;2024-02-15T14:44:39;2.47;;;1.70;;
5539;SDS011;2792;52.452;9.752;2024-02-15T14:47:09;3.13;;;1.80;;
5539;SDS011;2792;52.452;9.752;2024-02-15T14:49:36;4.10;;;1.93;;
5539;SDS011;2792;52.452;9.752;2024-02-15T14:52:03;3.17;;;2.03;;
5539;SDS011;2792;52.452;9.752;2024-02-15T14:54:30;3.10;;;1.70;;
5539;SDS011;2792;52.452;9.752;2024-02-15T14:56:58;1.80;;;1.70;;
5539;SDS011;2792;52.452;9.752;2024-02-15T14:59:24;2.03;;;1.70;;
5539;SDS011;2792;52.452;9.752;2024-02-15T15:01:51;2.33;;;1.80;;
5539;SDS011;2792;52.452;9.752;2024-02-15T15:04:19;2.97;;;1.90;;
5539;SDS011;2792;52.452;9.752;2024-02-15T15:06:46;1.70;;;1.50;;
5539;SDS011;2792;52.452;9.752;2024-02-15T15:09:30;4.63;;;1.70;;
5539;SDS011;2792;52.452;9.752;2024-02-15T15:12:14;4.70;;;2.03;;
5539;SDS011;2792;52.452;9.752;2024-02-15T15:14:58;1.93;;;1.83;;
5539;SDS011;2792;52.452;9.752;2024-02-15T15:17:25;3.40;;;1.70;;